• Join FlightAware (Why Join?)
  • Login
  • US Flag 
05:02AM EDT


 

Airport Tracker/Info


-or-


 

Live Flight TrackerFlight Track Log ✈ ASQ4209 ✈ 17-Jun-2013 ✈ KIAH - KBTR

Flight Track Log - Related Links

Times and Time Zones

All times are in EDT time to prevent confusion due to time zone crossing. See the ASQ4209 flight status page for this flight to view local times or setup timezone preferences in your user account.

Time Position Orientation Groundspeed Altitude Reporting Facility
EDT Latitude Longitude Course Direction KTS MPH feet Rate Location/Type
01:28PM 29.9617 -95.3436 90° East 145 167 700  Level Houston Center
01:29PM 29.9289 -95.2958 128° Southeast 192 221 2,600 1,620 Climbing Houston Center
01:29PM 29.9136 -95.2769 133° Southeast 224 258 3,000 1,740 Climbing Houston Center
01:30PM 29.8844 -95.2333 128° Southeast 232 267 4,400 2,400 Climbing Houston Center
01:30PM 29.8603 -95.1992 129° Southeast 270 311 5,700 2,280 Climbing Houston Center
01:31PM 29.9834 -94.8853 90° East  Level FlightAware Approximate
01:31PM 29.8397 -95.1633 123° Southeast 272 313 6,800  Level Houston Center
01:31PM 29.8431 -95.1267 84° East 290 334 7,700 2,220 Climbing Houston Center
01:32PM 29.9834 -94.7733 90° East  Level FlightAware Approximate
01:32PM 29.8550 -95.0717 76° East 288 331 9,100  Level Houston Center
01:33PM 29.9833 -94.6613 90° East  Level FlightAware Approximate
01:33PM 29.8725 -94.9775 78° East 299 344 10,300  Level Houston Center
01:34PM 29.8928 -94.8672 78° East 344 396 11,200 1,080 Climbing Houston Center
01:35PM 29.9139 -94.7536 78° East 360 414 12,600 1,320 Climbing Houston Center
01:36PM 29.9397 -94.6147 78° East 369 425 14,000 1,200 Climbing Houston Center
01:37PM 29.9608 -94.4969 78° East 375 432 15,100 960 Climbing Houston Center
01:38PM 29.9842 -94.3672 78° East 388 447 16,100 900 Climbing Houston Center
01:39PM 30.0036 -94.2444 80° East 391 450 17,000 840 Climbing Houston Center
01:40PM 30.0197 -94.1181 82° East 400 460 17,900 900 Climbing Houston Center
01:41PM 30.0353 -93.9897 82° East 406 467 18,900 480 Climbing Houston Center
01:42PM 30.0522 -93.8572 82° East 421 484 19,000  Climbing Houston Center
01:43PM 30.0719 -93.6906 82° East 440 506 19,000  Level Houston Center
01:44PM 30.0881 -93.5508 82° East 445 512 19,000  Level Houston Center
01:45PM 30.1042 -93.4119 82° East 446 513 19,000  Level Houston Center
01:46PM 30.1206 -93.2750 82° East 439 505 19,000  Level Houston Center
01:47PM 30.1406 -93.1069 82° East 444 511 19,000  Level Houston Center
01:48PM 30.1678 -92.9675 77° East 448 516 19,000  Level Houston Center
01:49PM 30.1944 -92.8317 77° East 439 505 19,000  Level Houston Center
01:50PM 30.2208 -92.6947 77° East 439 505 19,000  Level Houston Center
01:51PM 30.2481 -92.5578 77° East 439 505 19,000  Level Houston Center
01:52PM 30.2736 -92.4192 78° East 443 510 19,000  Level Houston Center
01:53PM 30.3108 -92.2731 74° East 435 501 19,000  Level Houston Center
01:54PM 30.3625 -92.1511 64° Northeast 438 504 19,000 -660 Level Houston Center
01:55PM 30.3872 -91.9828 80° East 443 510 17,700 -2,220 Descending Houston Center
01:57PM 30.4072 -91.8497 80° East 425 489 14,500 -2,940 Descending Houston Center
01:58PM 30.4403 -91.7286 72° East 399 459 11,700 -2,040 Descending Houston Center
01:59PM 30.4683 -91.6247 73° East 363 418 10,400 -1,320 Descending Houston Center
02:00PM 30.4947 -91.5278 72° East 316 364 9,000 -1,800 Descending Houston Center
02:01PM 30.5250 -91.4214 72° East 296 341 6,800 -1,920 Descending Houston Center
02:02PM 30.5486 -91.3369 72° East 288 331 5,100 -1,680 Descending Houston Center